首页
METAR-TAF:

METAR-TAF

机场 :

Massena, 紐約州, 美国

纬度: 44-56-09N, 经度: 074-50-44W, 海拔: 66米

当前天气观测

该预报发布于54分钟前的10:53 UTC
风速7节,风向东转东北
温度 18°C
湿度 83%
气压 1004 hPa
能見度: 16.1公里
散云层高于5500英尺
散云层高于7500英尺

METAR: KMSS 201053Z AUTO 07007KT 10SM SCT055 SCT075 18/15 A2965 RMK AO2 SLP040 T01780150

时间: 07:47 (11:47 UTC)

预报

该预报发布于12分钟前的11:35 UTC
预报有效从20日的 12点(UTC)到 21日的 12点(UTC)
风速6节,风向东转东北
能見度: 10公里
多云层高于10000英尺
从 20日的 1400点(UTC)
风速7节,风向东北
能見度: 10公里
阴天层高于2000英尺
小雨
从 20日的 1600点(UTC)
风速8节,风向北转东北
能見度: 8.0公里
阴天层高于1500英尺
小雨, 轻雾
从 21日的 0300点(UTC)
风速5节,风向北转东北
能見度: 10公里
阴天层高于3000英尺
附近有阵雨
从 21日的 1000点(UTC)
风速7节,风向
能見度: 10公里
多云层高于10000英尺

TAF: KMSS 201135Z 2012/2112 07006KT P6SM BKN100 FM201400 04007KT P6SM -RA OVC020 FM201600 03008KT 5SM -RA BR OVC015 FM210300 03005KT P6SM VCSH OVC030 FM211000 35007KT P6SM BKN100

超过4000个机场的气象观测和天气预报(METAR&TAF报告)。

可查询的气象台以黄色和红色小点在地图上表示。

将鼠标移到小点上方,可查看气象台名称。

然后点击查看天气观测和预报。

如需切换地图:点击带黑十字的绿色按钮放大地图;点击带横线的绿色按钮缩小地图;或者点击绿色箭头查看邻近地区的地图。


METAR-TAF: